createdAt,value
2024-03-02T00:00:58.382Z,32.78
2024-03-02T00:03:33.309Z,31.33
2024-03-02T00:06:07.516Z,30.75
2024-03-02T00:08:41.450Z,31.82
2024-03-02T00:11:17.255Z,29.75
2024-03-02T00:13:51.521Z,30.17
2024-03-02T00:16:26.279Z,31.52
2024-03-02T00:19:01.230Z,32.73
2024-03-02T00:21:35.640Z,31.95
2024-03-02T00:24:16.602Z,32.30
2024-03-02T00:26:50.431Z,31.62
2024-03-02T00:29:25.767Z,32.75
2024-03-02T00:31:59.989Z,33.08
2024-03-02T00:34:33.545Z,31.33
2024-03-02T00:37:08.995Z,33.05
2024-03-02T00:39:42.552Z,32.80
2024-03-02T00:42:16.111Z,32.00
2024-03-02T00:44:49.991Z,31.15
2024-03-02T00:47:24.302Z,31.12
2024-03-02T00:49:59.256Z,31.55
2024-03-02T00:52:34.374Z,31.05
2024-03-02T00:55:10.184Z,33.42
2024-03-02T00:57:45.521Z,35.88
2024-03-02T01:00:21.018Z,31.62
2024-03-02T01:02:54.449Z,30.92
2024-03-02T01:05:27.765Z,33.40
2024-03-02T01:08:02.604Z,32.50
2024-03-02T01:10:36.076Z,30.32
2024-03-02T01:13:09.881Z,31.30
2024-03-02T01:15:43.578Z,32.93
2024-03-02T01:18:17.381Z,31.73
2024-03-02T01:20:52.674Z,32.28
2024-03-02T01:23:26.233Z,31.97
2024-03-02T01:25:59.824Z,32.53
2024-03-02T01:28:33.276Z,33.58
2024-03-02T01:31:07.262Z,33.70
2024-03-02T01:33:40.966Z,32.63
2024-03-02T01:36:14.872Z,32.98
2024-03-02T01:38:48.527Z,33.15
2024-03-02T01:41:22.043Z,31.07
2024-03-02T01:43:55.426Z,31.35
2024-03-02T01:46:29.058Z,33.53
2024-03-02T01:49:02.482Z,32.48
2024-03-02T01:51:36.136Z,32.35
2024-03-02T01:54:09.755Z,32.40
2024-03-02T01:56:43.627Z,34.43
2024-03-02T01:59:17.230Z,32.98
2024-03-02T02:01:50.744Z,31.60
2024-03-02T02:04:26.085Z,34.10
2024-03-02T02:06:59.460Z,33.58
2024-03-02T02:09:32.931Z,34.27
2024-03-02T02:12:07.989Z,31.93
2024-03-02T02:14:43.076Z,32.88
2024-03-02T02:17:16.872Z,31.00
2024-03-02T02:19:50.641Z,32.90
2024-03-02T02:22:24.761Z,32.45
2024-03-02T02:24:58.240Z,33.28
2024-03-02T02:27:32.011Z,34.58
2024-03-02T02:30:06.582Z,31.45
2024-03-02T02:32:40.118Z,34.60
2024-03-02T02:35:14.028Z,34.38
2024-03-02T02:37:48.107Z,35.50
2024-03-02T02:40:22.036Z,34.53
2024-03-02T02:42:55.732Z,35.38
2024-03-02T02:45:29.453Z,34.45
2024-03-02T02:48:04.250Z,34.20
2024-03-02T02:50:37.879Z,35.43
2024-03-02T02:53:11.450Z,32.88
2024-03-02T02:55:45.087Z,33.53
2024-03-02T02:58:18.657Z,31.65
2024-03-02T03:00:52.606Z,31.02
2024-03-02T03:03:26.434Z,33.33
2024-03-02T03:05:59.954Z,33.70
2024-03-02T03:08:34.177Z,29.75
2024-03-02T03:11:08.500Z,32.80
2024-03-02T03:13:42.356Z,33.50
2024-03-02T03:16:15.758Z,33.42
2024-03-02T03:18:50.931Z,31.20
2024-03-02T03:21:24.776Z,31.45
2024-03-02T03:23:58.310Z,31.27
2024-03-02T03:26:31.691Z,32.53
2024-03-02T03:29:05.154Z,29.60
2024-03-02T03:31:38.621Z,29.82
2024-03-02T03:34:13.792Z,32.42
2024-03-02T03:36:47.410Z,31.27
2024-03-02T03:39:20.929Z,31.45
2024-03-02T03:41:54.384Z,30.70
2024-03-02T03:44:27.923Z,29.07
2024-03-02T03:47:02.239Z,28.90
2024-03-02T03:49:35.352Z,29.98
2024-03-02T03:52:09.443Z,30.55
2024-03-02T03:54:44.310Z,29.80
2024-03-02T03:57:17.932Z,30.40
2024-03-02T03:59:51.191Z,31.05
2024-03-02T04:02:26.024Z,29.40
2024-03-02T04:04:59.642Z,29.57
2024-03-02T04:07:36.789Z,31.75
2024-03-02T04:10:13.357Z,32.73
2024-03-02T04:12:47.427Z,31.85
2024-03-02T04:15:21.005Z,30.23
2024-03-02T04:17:54.824Z,31.97
2024-03-02T04:20:28.365Z,29.82
2024-03-02T04:23:01.720Z,30.70
2024-03-02T04:25:35.379Z,32.98
2024-03-02T04:28:09.746Z,31.68
2024-03-02T04:30:43.277Z,32.48
2024-03-02T04:33:17.105Z,34.63
2024-03-02T04:35:51.053Z,32.78
2024-03-02T04:38:24.833Z,32.25
2024-03-02T04:40:58.256Z,32.80
2024-03-02T04:43:33.076Z,32.55
2024-03-02T04:46:08.337Z,33.83
2024-03-02T04:48:43.073Z,32.05
2024-03-02T04:51:17.204Z,32.78
2024-03-02T04:53:50.768Z,34.40
2024-03-02T04:56:43.081Z,33.70
2024-03-02T04:59:16.544Z,34.18
2024-03-02T05:01:50.218Z,32.60
2024-03-02T05:04:23.671Z,31.95
2024-03-02T05:06:58.618Z,32.17
2024-03-02T05:09:32.413Z,31.40
2024-03-02T05:12:15.495Z,34.50
2024-03-02T05:14:49.684Z,33.50
2024-03-02T05:17:25.472Z,33.70
2024-03-02T05:19:59.053Z,34.90
2024-03-02T05:22:35.194Z,33.88
2024-03-02T05:25:10.973Z,30.35
2024-03-02T05:27:47.685Z,31.25
2024-03-02T05:30:21.492Z,33.50
2024-03-02T05:32:55.134Z,33.35
2024-03-02T05:35:28.652Z,31.65
2024-03-02T05:38:02.171Z,32.85
2024-03-02T05:40:35.656Z,32.45
2024-03-02T05:43:09.280Z,32.83
2024-03-02T05:45:42.941Z,31.73
2024-03-02T05:48:16.490Z,29.67
2024-03-02T05:50:50.040Z,31.48
2024-03-02T05:53:23.964Z,31.90
2024-03-02T05:55:57.884Z,30.90
2024-03-02T05:58:36.996Z,30.57
2024-03-02T06:01:10.967Z,30.62
2024-03-02T06:03:44.441Z,31.52
2024-03-02T06:06:18.121Z,32.03
2024-03-02T06:08:52.485Z,30.70
2024-03-02T06:11:26.107Z,30.60
2024-03-02T06:13:59.883Z,34.18
2024-03-02T06:16:33.575Z,34.63
2024-03-02T06:19:07.028Z,32.42
2024-03-02T06:21:41.487Z,35.15
2024-03-02T06:24:17.065Z,33.63
2024-03-02T06:26:50.755Z,35.13
2024-03-02T06:29:24.474Z,32.35
2024-03-02T06:31:57.762Z,34.23
2024-03-02T06:34:31.338Z,32.45
2024-03-02T06:37:04.862Z,30.45
2024-03-02T06:39:38.718Z,32.70
2024-03-02T06:42:13.089Z,33.48
2024-03-02T06:44:46.582Z,32.78
2024-03-02T06:47:21.683Z,31.93
2024-03-02T06:49:55.429Z,35.08
2024-03-02T06:52:29.011Z,32.23
2024-03-02T06:55:02.498Z,34.30
2024-03-02T06:57:35.995Z,34.15
2024-03-02T07:00:11.816Z,34.18
2024-03-02T07:02:45.581Z,30.27
2024-03-02T07:05:19.213Z,33.73
2024-03-02T07:07:52.594Z,34.38
2024-03-02T07:10:26.128Z,31.82
2024-03-02T07:13:00.152Z,31.95
2024-03-02T07:15:47.018Z,32.13
2024-03-02T07:18:21.014Z,36.42
2024-03-02T07:20:54.627Z,32.55
2024-03-02T07:23:28.758Z,31.85
2024-03-02T07:28:38.342Z,32.48
2024-03-02T07:31:11.992Z,33.65
2024-03-02T07:33:47.773Z,32.08
2024-03-02T07:36:23.899Z,34.15
2024-03-02T07:38:57.859Z,30.35
2024-03-02T07:41:37.150Z,32.05
2024-03-02T07:44:11.190Z,33.00
2024-03-02T07:46:45.199Z,35.30
2024-03-02T07:49:19.060Z,32.83
2024-03-02T07:51:52.628Z,33.33
2024-03-02T07:54:26.074Z,33.38
2024-03-02T07:57:00.029Z,32.65
2024-03-02T07:59:34.002Z,32.48
2024-03-02T08:02:08.371Z,32.00
2024-03-02T08:04:43.386Z,34.45
2024-03-02T08:07:17.035Z,32.50
2024-03-02T08:09:50.560Z,31.90
2024-03-02T08:12:24.956Z,31.97
2024-03-02T08:14:58.496Z,31.30
2024-03-02T08:17:34.181Z,28.92
2024-03-02T08:20:10.593Z,30.45
2024-03-02T08:22:44.131Z,33.33
2024-03-02T08:25:18.130Z,29.63
2024-03-02T08:27:51.825Z,26.90
2024-03-02T08:30:25.502Z,30.85
2024-03-02T08:32:59.016Z,30.97
2024-03-02T08:35:34.143Z,29.63
2024-03-02T08:38:08.269Z,29.10
2024-03-02T08:40:42.919Z,29.20
2024-03-02T08:43:16.667Z,28.57
2024-03-02T08:45:50.547Z,28.95
2024-03-02T08:48:24.322Z,28.05
2024-03-02T08:50:58.294Z,30.25
2024-03-02T08:53:31.713Z,28.67
2024-03-02T08:56:06.695Z,28.30
2024-03-02T08:58:40.407Z,28.98
2024-03-02T09:01:14.728Z,26.95
2024-03-02T09:03:48.686Z,31.48
2024-03-02T09:06:22.884Z,28.70
2024-03-02T09:08:56.590Z,30.82
2024-03-02T09:11:30.372Z,32.78
2024-03-02T09:14:04.080Z,32.23
2024-03-02T09:16:37.776Z,30.97
2024-03-02T09:19:13.115Z,27.37
2024-03-02T09:21:47.006Z,30.15
2024-03-02T09:24:20.510Z,30.77
2024-03-02T09:26:54.399Z,28.85
2024-03-02T09:29:28.250Z,26.00
2024-03-02T09:32:01.796Z,29.92
2024-03-02T09:34:35.309Z,28.42
2024-03-02T09:37:09.607Z,27.75
2024-03-02T09:39:44.884Z,27.75
2024-03-02T09:42:19.401Z,28.35
2024-03-02T09:44:54.067Z,29.82
2024-03-02T09:47:27.900Z,28.65
2024-03-02T09:50:03.108Z,30.80
2024-03-02T09:52:38.533Z,27.82
2024-03-02T09:55:15.909Z,29.27
2024-03-02T09:57:53.627Z,28.25
2024-03-02T10:00:29.644Z,27.60
2024-03-02T10:03:03.250Z,25.90
2024-03-02T10:05:39.094Z,28.12
2024-03-02T10:08:13.295Z,27.82
2024-03-02T10:10:47.343Z,27.22
2024-03-02T10:13:20.850Z,27.60
2024-03-02T10:15:55.808Z,26.42
2024-03-02T10:18:32.728Z,28.20
2024-03-02T10:21:16.821Z,27.00
2024-03-02T10:23:50.308Z,25.50
2024-03-02T10:26:24.475Z,30.57
2024-03-02T10:28:59.650Z,26.95
2024-03-02T10:31:33.166Z,26.82
2024-03-02T10:34:07.567Z,26.00
2024-03-02T10:36:43.418Z,27.02
2024-03-02T10:39:17.339Z,26.73
2024-03-02T10:41:52.060Z,26.52
2024-03-02T10:44:26.454Z,27.65
2024-03-02T10:47:02.435Z,27.58
2024-03-02T10:49:36.610Z,27.93
2024-03-02T10:52:10.845Z,26.05
2024-03-02T10:54:45.009Z,25.68
2024-03-02T10:57:26.707Z,27.07
2024-03-02T11:00:03.726Z,26.90
2024-03-02T11:02:40.012Z,27.73
2024-03-02T11:05:15.858Z,27.37
2024-03-02T11:07:50.063Z,26.45
2024-03-02T11:10:25.301Z,29.25
2024-03-02T11:13:03.467Z,27.10
2024-03-02T11:15:40.346Z,27.10
2024-03-02T11:18:15.235Z,28.33
2024-03-02T11:20:51.873Z,26.52
2024-03-02T11:23:36.406Z,26.42
2024-03-02T11:26:22.632Z,26.68
2024-03-02T11:28:57.266Z,27.40
2024-03-02T11:32:01.220Z,25.17
2024-03-02T11:34:35.926Z,24.90
2024-03-02T11:37:11.608Z,25.92
2024-03-02T11:39:47.189Z,26.90
2024-03-02T11:42:22.152Z,25.25
2024-03-02T11:44:57.039Z,26.68
2024-03-02T11:47:34.908Z,26.45
2024-03-02T11:50:10.661Z,25.20
2024-03-02T11:52:45.980Z,27.10
2024-03-02T11:55:20.808Z,29.15
2024-03-02T11:57:56.208Z,24.90
2024-03-02T12:00:29.932Z,23.22
2024-03-02T12:03:08.608Z,25.05
2024-03-02T12:05:43.351Z,25.30
2024-03-02T12:08:16.831Z,23.00
2024-03-02T12:11:04.701Z,23.67
2024-03-02T12:13:38.829Z,23.30
2024-03-02T12:16:14.988Z,22.98
2024-03-02T12:18:48.791Z,23.22
2024-03-02T12:21:22.444Z,23.67
2024-03-02T12:23:59.198Z,23.35
2024-03-02T12:26:33.948Z,21.82
2024-03-02T12:29:07.560Z,23.18
2024-03-02T12:31:41.717Z,23.12
2024-03-02T12:34:16.794Z,25.27
2024-03-02T12:36:53.086Z,22.00
2024-03-02T12:39:28.457Z,24.45
2024-03-02T12:42:02.076Z,23.35
2024-03-02T12:44:35.680Z,26.12
2024-03-02T12:47:09.694Z,26.87
2024-03-02T12:49:44.227Z,25.00
2024-03-02T12:52:20.455Z,23.98
2024-03-02T12:54:56.643Z,24.23
2024-03-02T12:57:32.207Z,25.90
2024-03-02T13:00:09.812Z,24.10
2024-03-02T13:02:44.800Z,23.75
2024-03-02T13:05:18.105Z,24.47
2024-03-02T13:07:52.100Z,24.92
2024-03-02T13:10:26.377Z,23.75
2024-03-02T13:13:01.695Z,22.52
2024-03-02T13:15:37.049Z,24.45
2024-03-02T13:18:15.031Z,24.55
2024-03-02T13:23:31.999Z,23.20
2024-03-02T13:26:07.530Z,23.95
2024-03-02T13:28:41.586Z,22.50
2024-03-02T13:31:14.899Z,22.40
2024-03-02T13:33:48.446Z,24.00
2024-03-02T13:36:23.576Z,23.75
2024-03-02T13:38:57.027Z,25.05
2024-03-02T13:41:30.494Z,27.35
2024-03-02T13:44:03.909Z,24.95
2024-03-02T13:46:37.160Z,24.92
2024-03-02T13:49:10.424Z,22.95
2024-03-02T13:51:44.325Z,24.27
2024-03-02T13:54:17.599Z,21.52
2024-03-02T13:56:51.183Z,24.30
2024-03-02T13:59:24.688Z,22.85
2024-03-02T14:01:57.795Z,22.60
2024-03-02T14:04:31.257Z,21.97
2024-03-02T14:07:05.174Z,25.55
2024-03-02T14:09:38.845Z,21.97
2024-03-02T14:12:14.884Z,22.95
2024-03-02T14:14:48.187Z,23.67
2024-03-02T14:17:21.696Z,23.15
2024-03-02T14:19:55.317Z,16.85
2024-03-02T14:22:28.892Z,21.20
2024-03-02T14:25:02.320Z,19.32
2024-03-02T14:27:50.955Z,20.10
2024-03-02T14:30:14.897Z,18.82
2024-03-02T14:32:48.254Z,18.50
2024-03-02T14:35:23.503Z,19.75
2024-03-02T14:37:58.794Z,15.63
2024-03-02T14:40:32.120Z,19.42
2024-03-02T14:43:06.928Z,21.40
2024-03-02T14:45:40.515Z,20.27
2024-03-02T14:48:14.221Z,18.90
2024-03-02T14:50:47.668Z,21.37
2024-03-02T14:53:21.809Z,21.02
2024-03-02T14:55:55.372Z,20.35
2024-03-02T14:58:28.875Z,20.82
2024-03-02T15:01:02.622Z,20.75
2024-03-02T15:03:37.350Z,20.25
2024-03-02T15:06:11.765Z,20.17
2024-03-02T15:08:47.013Z,21.70
2024-03-02T15:11:20.440Z,22.05
2024-03-02T15:13:55.113Z,21.12
2024-03-02T15:16:29.662Z,22.17
2024-03-02T15:19:04.057Z,22.10
2024-03-02T15:21:39.737Z,21.90
2024-03-02T15:24:13.051Z,21.17
2024-03-02T15:26:46.897Z,20.43
2024-03-02T15:29:23.605Z,22.75
2024-03-02T15:31:56.864Z,23.20
2024-03-02T15:34:30.261Z,24.00
2024-03-02T15:37:05.397Z,22.65
2024-03-02T15:39:39.532Z,20.52
2024-03-02T15:42:13.875Z,18.98
2024-03-02T15:44:47.499Z,22.17
2024-03-02T15:47:21.015Z,19.92
2024-03-02T15:49:54.613Z,22.15
2024-03-02T15:52:28.444Z,21.82
2024-03-02T15:55:03.121Z,18.98
2024-03-02T15:57:37.727Z,22.93
2024-03-02T16:00:13.055Z,25.23
2024-03-02T16:02:46.563Z,22.55
2024-03-02T16:05:21.607Z,18.92
2024-03-02T16:07:54.981Z,22.17
2024-03-02T16:10:28.715Z,21.75
2024-03-02T16:13:02.093Z,23.10
2024-03-02T16:15:37.790Z,22.07
2024-03-02T16:18:11.289Z,20.75
2024-03-02T16:20:44.752Z,22.70
2024-03-02T16:23:20.598Z,22.13
2024-03-02T16:25:54.917Z,24.02
2024-03-02T16:28:28.732Z,20.32
2024-03-02T16:31:02.271Z,23.65
2024-03-02T16:33:36.178Z,23.83
2024-03-02T16:36:10.887Z,23.83
2024-03-02T16:38:45.456Z,24.25
2024-03-02T16:41:20.466Z,22.82
2024-03-02T16:43:54.759Z,23.60
2024-03-02T16:46:29.603Z,24.35
2024-03-02T16:49:03.580Z,24.40
2024-03-02T16:51:43.799Z,23.98
2024-03-02T16:54:17.618Z,25.12
2024-03-02T16:56:51.071Z,26.05
2024-03-02T16:59:24.652Z,22.62
2024-03-02T17:04:39.988Z,23.22
2024-03-02T17:07:14.502Z,24.50
2024-03-02T17:09:48.289Z,23.50
2024-03-02T17:12:21.877Z,24.80
2024-03-02T17:14:55.850Z,23.15
2024-03-02T17:17:29.629Z,27.50
2024-03-02T17:20:03.835Z,21.62
2024-03-02T17:22:37.243Z,25.77
2024-03-02T17:25:11.812Z,25.92
2024-03-02T17:27:45.055Z,25.10
2024-03-02T17:30:21.631Z,22.67
2024-03-02T17:32:54.956Z,24.63
2024-03-02T17:35:28.403Z,24.60
2024-03-02T17:38:03.632Z,24.55
2024-03-02T17:40:36.949Z,23.90
2024-03-02T17:43:10.442Z,26.65
2024-03-02T17:45:44.118Z,24.37
2024-03-02T17:48:18.371Z,25.55
2024-03-02T17:50:52.186Z,24.87
2024-03-02T17:53:26.094Z,24.92
2024-03-02T17:55:59.987Z,23.55
2024-03-02T17:58:33.743Z,21.40
2024-03-02T18:01:07.783Z,22.90
2024-03-02T18:03:41.265Z,25.30
2024-03-02T18:06:15.636Z,25.25
2024-03-02T18:08:50.868Z,26.57
2024-03-02T18:11:25.892Z,22.60
2024-03-02T18:13:59.466Z,23.70
2024-03-02T18:16:32.923Z,22.45
2024-03-02T18:19:08.798Z,25.68
2024-03-02T18:21:41.829Z,27.15
2024-03-02T18:24:15.242Z,25.02
2024-03-02T18:26:48.466Z,21.55
2024-03-02T18:29:22.505Z,23.50
2024-03-02T18:31:57.197Z,23.25
2024-03-02T18:34:30.649Z,23.67
2024-03-02T18:37:04.308Z,22.10
2024-03-02T18:39:37.657Z,24.92
2024-03-02T18:42:11.109Z,21.65
2024-03-02T18:44:45.126Z,20.05
2024-03-02T18:47:19.589Z,20.77
2024-03-02T18:49:54.866Z,22.62
2024-03-02T18:52:28.984Z,21.87
2024-03-02T18:55:04.183Z,25.05
2024-03-02T18:57:38.206Z,20.60
2024-03-02T19:00:14.310Z,22.15
2024-03-02T19:02:49.070Z,19.52
2024-03-02T19:05:22.830Z,22.27
2024-03-02T19:07:56.684Z,21.65
2024-03-02T19:10:30.394Z,20.97
2024-03-02T19:13:04.123Z,20.25
2024-03-02T19:15:37.748Z,18.55
2024-03-02T19:18:12.662Z,18.82
2024-03-02T19:20:47.319Z,17.42
2024-03-02T19:23:25.835Z,19.77
2024-03-02T19:25:58.006Z,17.62
2024-03-02T19:28:31.933Z,16.35
2024-03-02T19:31:06.367Z,19.55
2024-03-02T19:33:40.373Z,18.57
2024-03-02T19:36:14.951Z,19.92
2024-03-02T19:38:48.649Z,18.52
2024-03-02T19:41:23.331Z,20.20
2024-03-02T19:43:57.314Z,21.15
2024-03-02T19:46:34.298Z,22.00
2024-03-02T19:49:07.976Z,19.25
2024-03-02T19:51:41.927Z,18.10
2024-03-02T19:54:15.600Z,16.80
2024-03-02T19:56:48.932Z,21.80
2024-03-02T19:59:22.303Z,19.85
2024-03-02T20:01:56.466Z,19.17
2024-03-02T20:04:29.966Z,19.32
2024-03-02T20:07:04.494Z,20.77
2024-03-02T20:09:38.521Z,20.50
2024-03-02T20:12:12.296Z,21.65
2024-03-02T20:14:47.768Z,20.08
2024-03-02T20:17:22.763Z,22.27
2024-03-02T20:19:56.671Z,25.55
2024-03-02T20:22:30.221Z,23.75
2024-03-02T20:25:04.065Z,26.30
2024-03-02T20:27:37.424Z,24.45
2024-03-02T20:30:14.096Z,22.80
2024-03-02T20:32:47.746Z,24.18
2024-03-02T20:35:21.405Z,25.82
2024-03-02T20:37:57.466Z,21.97
2024-03-02T20:40:31.124Z,25.40
2024-03-02T20:43:05.345Z,22.82
2024-03-02T20:45:41.757Z,25.35
2024-03-02T20:48:16.285Z,26.25
2024-03-02T20:50:49.917Z,22.00
2024-03-02T20:53:23.661Z,21.85
2024-03-02T20:55:57.145Z,17.98
2024-03-02T20:58:31.909Z,23.42
2024-03-02T21:01:06.671Z,24.57
2024-03-02T21:03:41.873Z,20.30
2024-03-02T21:06:15.676Z,19.70
2024-03-02T21:08:49.226Z,22.50
2024-03-02T21:11:23.439Z,19.27
2024-03-02T21:13:57.584Z,22.50
2024-03-02T21:16:31.194Z,19.95
2024-03-02T21:19:04.654Z,22.55
2024-03-02T21:21:39.833Z,20.52
2024-03-02T21:24:13.252Z,20.57
2024-03-02T21:26:47.618Z,19.60
2024-03-02T21:29:21.459Z,22.20
2024-03-02T21:31:56.922Z,20.27
2024-03-02T21:34:30.394Z,19.70
2024-03-02T21:37:04.596Z,19.65
2024-03-02T21:39:43.214Z,20.45
2024-03-02T21:42:13.379Z,20.77
2024-03-02T21:44:46.908Z,22.00
2024-03-02T21:47:20.895Z,20.15
2024-03-02T21:49:54.071Z,20.70
2024-03-02T21:52:27.945Z,20.20
2024-03-02T21:55:01.987Z,16.27
2024-03-02T21:57:35.992Z,19.77
2024-03-02T22:00:10.974Z,17.95
2024-03-02T22:02:47.448Z,18.55
2024-03-02T22:05:21.062Z,19.60
2024-03-02T22:07:56.179Z,21.60
2024-03-02T22:10:30.783Z,17.85
2024-03-02T22:13:04.865Z,17.25
2024-03-02T22:15:38.541Z,19.17
2024-03-02T22:18:12.035Z,17.90
2024-03-02T22:20:45.857Z,19.90
2024-03-02T22:23:19.744Z,15.95
2024-03-02T22:25:53.510Z,18.07
2024-03-02T22:28:27.131Z,15.30
2024-03-02T22:31:00.841Z,17.40
2024-03-02T22:33:34.817Z,18.40
2024-03-02T22:36:10.387Z,15.13
2024-03-02T22:38:43.961Z,15.58
2024-03-02T22:41:17.551Z,14.60
2024-03-02T22:43:51.196Z,15.10
2024-03-02T22:46:28.173Z,11.65
2024-03-02T22:49:11.037Z,12.95
2024-03-02T22:51:54.784Z,14.15
2024-03-02T22:54:32.716Z,16.17
2024-03-02T22:59:42.933Z,14.60
2024-03-02T23:02:21.952Z,12.75
2024-03-02T23:05:00.208Z,15.58
2024-03-02T23:07:35.203Z,15.48
2024-03-02T23:10:10.532Z,13.35
2024-03-02T23:12:46.646Z,11.75
2024-03-02T23:15:20.612Z,13.60
2024-03-02T23:17:55.761Z,10.80
2024-03-02T23:20:37.213Z,11.83
2024-03-02T23:23:12.167Z,14.68
2024-03-02T23:25:46.495Z,13.28
2024-03-02T23:28:20.241Z,14.70
2024-03-02T23:30:54.804Z,14.20
2024-03-02T23:33:28.365Z,14.07
2024-03-02T23:36:02.068Z,13.48
2024-03-02T23:38:35.608Z,14.23
2024-03-02T23:41:12.582Z,12.70
2024-03-02T23:46:18.747Z,13.08
2024-03-02T23:48:52.432Z,12.45
2024-03-02T23:51:26.241Z,13.08
2024-03-02T23:54:01.254Z,11.93
2024-03-02T23:56:34.670Z,12.23
2024-03-02T23:59:08.972Z,13.75
